Time;durP1;ratioP1;P1;durP2;ratioP2;P2;SDS_P1;SDS_P2;PMS_P1;PMS_P2;Temp;Humidity;BMP_temperature;BMP_pressure;BME280_temperature;BME280_humidity;BME280_pressure;Samples;Min_cycle;Max_cycle;Signal;HPM_P1;HPM_P2
2023/10/20 00:02:13;;;;;;;64.40;59.00;;;21.70;56.80;;;;;;5034370;28;20198;-68
2023/10/20 00:04:38;;;;;;;67.60;61.50;;;21.70;56.80;;;;;;5048657;28;20453;-68
2023/10/20 00:07:04;;;;;;;63.97;58.27;;;21.80;56.80;;;;;;5038408;28;20442;-68
2023/10/20 00:09:29;;;;;;;68.70;62.57;;;21.80;56.80;;;;;;5034212;28;20168;-69
2023/10/20 00:11:55;;;;;;;64.33;58.57;;;21.80;56.80;;;;;;5034191;28;20230;-68
2023/10/20 00:14:20;;;;;;;63.37;57.87;;;21.80;56.80;;;;;;5032678;28;20265;-69
2023/10/20 00:16:46;;;;;;;63.37;57.97;;;21.70;56.80;;;;;;5033930;28;20179;-68
2023/10/20 00:19:12;;;;;;;63.27;57.77;;;21.70;56.80;;;;;;5033405;28;20220;-68
2023/10/20 00:21:39;;;;;;;59.57;54.47;;;21.70;56.80;;;;;;5033443;28;20697;-68
2023/10/20 00:24:05;;;;;;;62.53;56.90;;;21.80;56.90;;;;;;5033388;28;20184;-68
2023/10/20 00:26:30;;;;;;;61.00;55.60;;;21.70;56.80;;;;;;5033478;28;21164;-68
2023/10/20 00:28:56;;;;;;;62.23;56.73;;;21.80;56.90;;;;;;5033355;28;20971;-69
2023/10/20 00:31:23;;;;;;;62.10;56.70;;;21.80;56.90;;;;;;5032090;28;20180;-68
2023/10/20 00:33:50;;;;;;;60.70;55.43;;;21.70;56.80;;;;;;5033168;28;20183;-68
2023/10/20 00:36:17;;;;;;;61.07;55.73;;;21.80;56.80;;;;;;5033285;28;20411;-68
2023/10/20 00:38:42;;;;;;;62.80;57.13;;;21.80;56.80;;;;;;5033502;28;20414;-67
2023/10/20 00:41:08;;;;;;;61.10;55.83;;;21.70;56.80;;;;;;5033053;28;20413;-68
2023/10/20 00:43:35;;;;;;;62.50;57.27;;;21.80;56.80;;;;;;5033113;28;20200;-68
2023/10/20 00:46:04;;;;;;;63.30;57.73;;;21.70;56.80;;;;;;5032991;28;20242;-67
2023/10/20 00:48:30;;;;;;;60.67;55.17;;;21.80;56.80;;;;;;5032952;28;20430;-68
2023/10/20 00:50:57;;;;;;;58.67;53.53;;;21.70;56.80;;;;;;5032806;28;20411;-67
2023/10/20 00:53:23;;;;;;;60.70;55.57;;;21.70;56.80;;;;;;5031639;28;20427;-68
2023/10/20 00:55:50;;;;;;;58.93;53.93;;;21.70;56.80;;;;;;5032713;28;20903;-68
2023/10/20 00:58:16;;;;;;;62.87;57.27;;;21.70;56.80;;;;;;5032794;28;20417;-68
2023/10/20 01:00:42;;;;;;;59.20;53.90;;;21.80;56.80;;;;;;5032784;28;20913;-68
2023/10/20 01:03:08;;;;;;;58.47;53.20;;;21.70;56.80;;;;;;5032023;28;20504;-68
2023/10/20 01:05:35;;;;;;;57.77;52.87;;;21.70;56.80;;;;;;5032452;28;20434;-68
2023/10/20 01:08:01;;;;;;;59.33;54.30;;;21.70;56.80;;;;;;5032592;28;20247;-67
2023/10/20 01:10:27;;;;;;;59.80;54.63;;;21.70;56.80;;;;;;5032561;28;20971;-68
2023/10/20 01:12:52;;;;;;;59.37;54.17;;;21.70;56.80;;;;;;5031240;28;20180;-68
2023/10/20 01:15:18;;;;;;;57.10;52.37;;;21.80;56.90;;;;;;5032307;28;20192;-68
2023/10/20 01:17:43;;;;;;;57.30;52.40;;;21.70;56.80;;;;;;5032396;28;20175;-67
2023/10/20 01:20:10;;;;;;;57.27;52.40;;;21.70;56.80;;;;;;5032262;28;20566;-69
2023/10/20 01:22:35;;;;;;;59.47;54.20;;;21.70;56.80;;;;;;5032275;28;20191;-68
2023/10/20 01:25:01;;;;;;;56.73;51.97;;;21.70;56.80;;;;;;5032173;28;20441;-69
2023/10/20 01:27:27;;;;;;;58.10;53.10;;;21.70;56.80;;;;;;5032093;28;20171;-67
2023/10/20 01:29:52;;;;;;;56.83;52.00;;;21.70;56.80;;;;;;5032172;28;20172;-67
2023/10/20 01:32:18;;;;;;;55.67;50.93;;;21.70;56.80;;;;;;5032078;28;20258;-68
2023/10/20 01:34:44;;;;;;;55.30;50.60;;;21.70;56.80;;;;;;5031922;28;20245;-68
2023/10/20 01:37:11;;;;;;;57.07;51.93;;;21.70;56.80;;;;;;5031990;28;20164;-68
2023/10/20 01:39:41;;;;;;;56.30;51.37;;;21.70;56.80;;;;;;5031886;28;20233;-68
2023/10/20 01:42:07;;;;;;;57.00;51.83;;;21.70;56.80;;;;;;5031792;28;20447;-67
2023/10/20 01:44:33;;;;;;;57.27;52.20;;;21.70;56.80;;;;;;5031710;28;20433;-68
2023/10/20 01:46:59;;;;;;;56.60;51.50;;;21.70;56.80;;;;;;5031801;28;20905;-68
2023/10/20 01:49:25;;;;;;;55.23;50.37;;;21.70;56.80;;;;;;5031792;28;20437;-67
2023/10/20 01:51:51;;;;;;;54.27;49.57;;;21.70;56.80;;;;;;5031693;28;20833;-69
2023/10/20 01:54:16;;;;;;;57.33;52.33;;;21.70;56.80;;;;;;5030237;28;20243;-67
2023/10/20 01:56:43;;;;;;;54.27;49.63;;;21.70;56.80;;;;;;5031612;28;20176;-68
2023/10/20 01:59:10;;;;;;;55.20;50.47;;;21.70;56.80;;;;;;5031537;28;20175;-68
2023/10/20 02:01:35;;;;;;;55.77;51.10;;;21.70;56.80;;;;;;5031411;28;20976;-68
2023/10/20 02:04:01;;;;;;;57.63;52.80;;;21.70;56.80;;;;;;5031532;28;20529;-68
2023/10/20 02:06:27;;;;;;;55.17;50.40;;;21.70;56.80;;;;;;5031446;28;20527;-68
2023/10/20 02:08:53;;;;;;;56.50;51.50;;;21.70;56.80;;;;;;5031517;28;20426;-68
2023/10/20 02:11:18;;;;;;;56.93;52.00;;;21.70;56.80;;;;;;5031603;28;20211;-67
2023/10/20 02:13:44;;;;;;;56.60;51.67;;;21.70;56.80;;;;;;5029943;28;20422;-67
2023/10/20 02:16:10;;;;;;;54.83;50.23;;;21.70;56.80;;;;;;5030683;28;20180;-68
2023/10/20 02:18:36;;;;;;;55.20;50.43;;;21.70;56.80;;;;;;5031165;28;20179;-69
2023/10/20 02:21:03;;;;;;;55.73;50.80;;;21.70;56.80;;;;;;5031127;28;20453;-68
2023/10/20 02:23:30;;;;;;;55.23;50.50;;;21.70;57.30;;;;;;5031312;28;20452;-68
2023/10/20 02:26:00;;;;;;;53.83;49.23;;;21.70;56.80;;;;;;5031057;28;20438;-67
2023/10/20 02:28:26;;;;;;;55.00;50.20;;;21.70;56.80;;;;;;5031309;28;20419;-67
2023/10/20 02:30:53;;;;;;;51.17;46.97;;;21.70;56.80;;;;;;5031253;28;20448;-67
2023/10/20 02:33:19;;;;;;;53.73;49.10;;;21.70;56.80;;;;;;5031402;28;20418;-69
2023/10/20 02:35:44;;;;;;;52.57;48.20;;;21.70;56.80;;;;;;5031030;28;20430;-68
2023/10/20 02:38:10;;;;;;;53.27;48.70;;;21.70;56.80;;;;;;5030969;28;20233;-69
2023/10/20 02:40:36;;;;;;;53.13;48.53;;;21.70;56.80;;;;;;5030923;28;20218;-70
2023/10/20 02:43:01;;;;;;;51.60;47.30;;;21.70;56.80;;;;;;5031406;28;20672;-67
2023/10/20 02:45:27;;;;;;;51.77;47.20;;;21.70;56.80;;;;;;5049951;28;20214;-68
2023/10/20 02:47:52;;;;;;;50.80;46.50;;;21.70;56.80;;;;;;5050823;28;20179;-68
2023/10/20 02:50:18;;;;;;;53.90;49.10;;;21.70;56.80;;;;;;5050661;28;20214;-67
2023/10/20 02:52:44;;;;;;;52.23;47.80;;;21.70;56.80;;;;;;5049989;28;20193;-68
2023/10/20 02:55:09;;;;;;;51.53;47.20;;;21.70;56.80;;;;;;5050323;28;20676;-68
2023/10/20 02:57:38;;;;;;;51.53;47.30;;;21.70;56.80;;;;;;5050679;28;20425;-69
2023/10/20 03:00:04;;;;;;;51.77;47.17;;;21.70;57.30;;;;;;5050825;28;20201;-68
2023/10/20 03:02:30;;;;;;;51.20;46.80;;;21.70;56.80;;;;;;5048806;28;21032;-68
2023/10/20 03:04:56;;;;;;;50.80;46.47;;;21.70;56.80;;;;;;5042467;28;20557;-68
2023/10/20 03:07:27;;;;;;;51.40;47.10;;;21.70;56.80;;;;;;5030776;28;20498;-68
2023/10/20 03:09:53;;;;;;;51.13;46.80;;;21.70;56.80;;;;;;5030421;28;20179;-68
2023/10/20 03:12:19;;;;;;;50.30;46.10;;;21.70;56.80;;;;;;5044729;28;20466;-68
2023/10/20 03:14:45;;;;;;;50.70;46.37;;;21.70;56.80;;;;;;5030497;28;20422;-69
2023/10/20 03:17:11;;;;;;;52.30;47.80;;;21.70;56.80;;;;;;5045331;28;20193;-67
2023/10/20 03:19:38;;;;;;;49.60;45.40;;;21.70;56.80;;;;;;5048939;28;20827;-68
2023/10/20 03:22:03;;;;;;;49.07;44.83;;;21.70;56.80;;;;;;5050027;28;20268;-68
2023/10/20 03:24:29;;;;;;;51.00;46.63;;;21.70;56.80;;;;;;5045410;28;21011;-67
2023/10/20 03:26:55;;;;;;;52.47;47.90;;;21.70;56.80;;;;;;5032347;28;20202;-69
2023/10/20 03:29:20;;;;;;;47.37;43.47;;;21.70;56.80;;;;;;5034401;28;20210;-69
2023/10/20 03:31:46;;;;;;;48.23;44.00;;;21.70;56.80;;;;;;5034543;28;20179;-68
2023/10/20 03:34:11;;;;;;;50.23;46.00;;;21.70;56.80;;;;;;5033601;28;20582;-68
2023/10/20 03:36:37;;;;;;;49.73;45.43;;;21.70;56.80;;;;;;5036179;28;20211;-68
2023/10/20 03:39:14;;;;;;;48.90;44.70;;;21.70;56.80;;;;;;5039901;28;20191;-68
2023/10/20 03:41:40;;;;;;;49.77;45.57;;;21.70;56.80;;;;;;5038008;28;20677;-68
2023/10/20 03:44:07;;;;;;;47.93;43.77;;;21.70;56.80;;;;;;5033770;28;20807;-69
2023/10/20 03:46:43;;;;;;;48.00;43.90;;;21.70;56.80;;;;;;5033362;28;20786;-68
2023/10/20 03:49:08;;;;;;;47.80;43.70;;;21.70;56.80;;;;;;5034075;28;20815;-68
2023/10/20 03:51:37;;;;;;;48.87;44.47;;;21.70;56.80;;;;;;5033883;28;20502;-68
2023/10/20 03:54:05;;;;;;;47.33;43.33;;;21.60;56.70;;;;;;5046364;28;20202;-68
2023/10/20 03:56:34;;;;;;;49.90;45.50;;;21.60;56.70;;;;;;5053788;28;20445;-66
2023/10/20 03:59:00;;;;;;;48.33;44.03;;;21.60;56.70;;;;;;5053782;28;20425;-68
2023/10/20 04:01:27;;;;;;;48.63;44.63;;;21.60;56.70;;;;;;5053443;28;20453;-67
2023/10/20 04:03:53;;;;;;;47.57;43.57;;;21.70;56.80;;;;;;5041772;28;20445;-68
2023/10/20 04:06:19;;;;;;;47.70;43.70;;;21.70;56.80;;;;;;5049925;28;20441;-67
2023/10/20 04:08:45;;;;;;;47.77;43.67;;;21.70;56.80;;;;;;5053660;28;20666;-69
2023/10/20 04:11:12;;;;;;;48.50;44.30;;;21.60;56.70;;;;;;5033837;28;20445;-67
2023/10/20 04:13:39;;;;;;;48.50;44.20;;;21.70;56.80;;;;;;5033234;28;20187;-67
2023/10/20 04:16:12;;;;;;;47.30;43.40;;;21.60;56.70;;;;;;5032131;28;20414;-68
2023/10/20 04:18:39;;;;;;;42.70;39.10;;;21.70;56.70;;;;;;5033220;28;20488;-68
2023/10/20 04:21:05;;;;;;;45.00;41.10;;;21.60;56.60;;;;;;5033621;28;20494;-68
2023/10/20 04:23:30;;;;;;;44.03;40.43;;;21.60;56.60;;;;;;5031259;28;20557;-68
2023/10/20 04:25:57;;;;;;;44.60;40.90;;;21.60;56.60;;;;;;5033387;28;20261;-67
2023/10/20 04:28:37;;;;;;;43.00;39.40;;;21.60;56.60;;;;;;5033421;28;20256;-67
2023/10/20 04:42:55;;;;;;;41.87;38.47;;;21.60;56.70;;;;;;5053055;28;20899;-68
2023/10/20 04:52:55;;;;;;;45.37;41.57;;;21.60;56.80;;;;;;5051078;28;20483;-67
2023/10/20 04:57:53;;;;;;;44.10;40.30;;;21.60;56.80;;;;;;5052527;28;20756;-68
2023/10/20 05:08:16;;;;;;;36.83;33.63;;;21.60;56.70;;;;;;5052514;28;20393;-67
2023/10/20 05:10:43;;;;;;;42.90;39.20;;;21.60;56.70;;;;;;5051899;28;20390;-69
2023/10/20 05:13:09;;;;;;;41.80;38.20;;;21.60;56.70;;;;;;5053375;28;20441;-69
2023/10/20 05:15:43;;;;;;;42.63;38.90;;;21.60;56.70;;;;;;5032580;28;20434;-67
2023/10/20 05:18:11;;;;;;;41.67;38.10;;;21.60;56.80;;;;;;5049553;28;20433;-68
2023/10/20 05:20:44;;;;;;;41.37;37.87;;;21.60;56.80;;;;;;5052693;28;20406;-68
2023/10/20 05:23:10;;;;;;;43.90;39.97;;;21.60;56.70;;;;;;5048121;28;20507;-68
2023/10/20 05:25:36;;;;;;;39.77;36.40;;;21.60;56.80;;;;;;5031747;28;20874;-69
2023/10/20 05:28:02;;;;;;;39.63;36.23;;;21.60;56.80;;;;;;5031835;28;20271;-68
2023/10/20 05:30:28;;;;;;;39.17;35.90;;;21.60;56.70;;;;;;5032206;28;20953;-68
2023/10/20 05:32:54;;;;;;;38.60;35.30;;;21.60;56.70;;;;;;5032415;28;20601;-68
2023/10/20 05:35:20;;;;;;;40.17;36.77;;;21.60;56.70;;;;;;5051139;28;20202;-68
2023/10/20 05:37:45;;;;;;;40.50;36.90;;;21.60;56.80;;;;;;5051908;28;20179;-67
2023/10/20 05:40:14;;;;;;;40.57;37.07;;;21.60;56.80;;;;;;5047844;28;20501;-68
2023/10/20 05:42:40;;;;;;;35.33;32.33;;;21.60;56.70;;;;;;5031852;28;20223;-68
2023/10/20 05:45:09;;;;;;;39.97;36.57;;;21.60;56.70;;;;;;5049967;28;20480;-67
2023/10/20 05:47:36;;;;;;;34.97;31.97;;;21.60;56.70;;;;;;5050534;28;20600;-67
2023/10/20 05:50:02;;;;;;;37.90;34.60;;;21.60;56.70;;;;;;5051532;28;20416;-68
2023/10/20 05:52:28;;;;;;;36.10;33.17;;;21.60;56.70;;;;;;5052028;28;20481;-68
2023/10/20 05:54:56;;;;;;;36.43;33.27;;;21.60;56.70;;;;;;5045642;28;20456;-68
2023/10/20 05:57:22;;;;;;;34.37;31.47;;;21.60;56.70;;;;;;5031645;28;20476;-68
2023/10/20 05:59:48;;;;;;;33.70;30.90;;;21.60;56.70;;;;;;5031772;28;20975;-69
2023/10/20 06:02:14;;;;;;;34.60;31.47;;;21.60;56.70;;;;;;5041475;28;20551;-68
2023/10/20 06:04:40;;;;;;;35.40;32.50;;;21.60;56.60;;;;;;5050411;28;20536;-68
2023/10/20 06:07:06;;;;;;;34.93;31.83;;;21.60;56.60;;;;;;5050636;28;20183;-68
2023/10/20 06:09:32;;;;;;;33.80;31.10;;;21.60;56.70;;;;;;5042840;28;20557;-67
2023/10/20 06:11:59;;;;;;;34.60;31.63;;;21.60;56.70;;;;;;5031473;28;20407;-69
2023/10/20 06:14:25;;;;;;;36.23;33.17;;;21.60;56.70;;;;;;5030862;28;20203;-69
2023/10/20 06:16:51;;;;;;;35.73;32.70;;;21.60;56.70;;;;;;5047683;28;20781;-69
2023/10/20 06:19:17;;;;;;;36.43;33.33;;;21.60;56.70;;;;;;5051077;28;20956;-68
2023/10/20 06:21:43;;;;;;;34.53;31.63;;;21.60;56.70;;;;;;5051087;28;20510;-68
2023/10/20 06:24:09;;;;;;;32.83;30.23;;;21.60;56.80;;;;;;5038860;28;20203;-65
2023/10/20 06:26:35;;;;;;;34.70;31.63;;;21.60;56.70;;;;;;5030398;28;20183;-69
2023/10/20 06:29:02;;;;;;;35.07;32.20;;;21.60;56.80;;;;;;5031123;28;20410;-67
2023/10/20 06:34:03;;;;;;;35.80;32.73;;;21.60;56.80;;;;;;5038004;28;20441;-67
2023/10/20 06:36:28;;;;;;;35.70;32.60;;;21.60;56.80;;;;;;5038899;28;20338;-67
2023/10/20 06:38:54;;;;;;;35.13;32.30;;;21.60;56.80;;;;;;5028986;28;20442;-68
2023/10/20 06:41:20;;;;;;;33.13;30.40;;;21.60;56.80;;;;;;5029132;28;20272;-68
2023/10/20 06:43:46;;;;;;;35.97;32.97;;;21.60;56.80;;;;;;5029595;28;20187;-68
2023/10/20 06:46:12;;;;;;;34.63;31.83;;;21.60;56.80;;;;;;5029023;28;20261;-67
2023/10/20 06:48:37;;;;;;;33.67;30.87;;;21.60;56.80;;;;;;5028260;28;20441;-68
2023/10/20 06:51:03;;;;;;;33.13;30.23;;;21.60;56.80;;;;;;5030853;28;20249;-67
2023/10/20 06:53:29;;;;;;;32.63;29.93;;;21.60;56.70;;;;;;5030859;28;20191;-67
2023/10/20 06:55:56;;;;;;;35.10;32.27;;;21.60;56.80;;;;;;5029859;28;20291;-66
2023/10/20 06:58:21;;;;;;;34.17;31.27;;;21.60;56.80;;;;;;5042341;28;20194;-67
2023/10/20 07:00:47;;;;;;;31.53;28.93;;;21.60;56.80;;;;;;5032611;28;20820;-66
2023/10/20 07:03:13;;;;;;;33.07;30.23;;;21.60;56.70;;;;;;5036660;28;20247;-67
2023/10/20 07:05:42;;;;;;;31.73;29.13;;;21.60;56.80;;;;;;5034782;28;20438;-68
2023/10/20 07:08:08;;;;;;;32.20;29.50;;;21.60;56.80;;;;;;5034868;28;20421;-66
2023/10/20 07:10:37;;;;;;;33.13;30.20;;;21.60;56.80;;;;;;5036228;28;20438;-68
2023/10/20 07:13:07;;;;;;;33.33;30.43;;;21.60;56.70;;;;;;5036914;28;20603;-68
2023/10/20 07:15:34;;;;;;;33.27;30.47;;;21.60;56.80;;;;;;5049447;28;20558;-67
2023/10/20 07:18:01;;;;;;;32.33;29.83;;;21.60;56.80;;;;;;5054487;28;20772;-67
2023/10/20 07:20:27;;;;;;;33.20;30.27;;;21.60;56.80;;;;;;5054909;28;20445;-67
2023/10/20 07:22:52;;;;;;;32.67;29.53;;;21.60;56.80;;;;;;5045285;28;20913;-66
2023/10/20 07:25:18;;;;;;;30.20;27.77;;;21.60;56.80;;;;;;5036508;28;20290;-66
2023/10/20 07:27:44;;;;;;;30.87;28.37;;;21.60;56.80;;;;;;5034271;28;20292;-68
2023/10/20 07:30:10;;;;;;;31.60;28.97;;;21.60;56.80;;;;;;5034284;28;20490;-68
2023/10/20 07:32:37;;;;;;;30.83;28.30;;;21.60;56.80;;;;;;5043859;28;20191;-68
2023/10/20 07:35:03;;;;;;;31.67;28.97;;;21.60;56.80;;;;;;5035020;28;20484;-67
2023/10/20 07:37:29;;;;;;;33.43;30.40;;;21.60;56.80;;;;;;5039542;28;20454;-67
2023/10/20 07:39:55;;;;;;;30.00;27.50;;;21.60;56.80;;;;;;5051843;28;20541;-67
2023/10/20 07:42:21;;;;;;;30.93;28.33;;;21.60;56.70;;;;;;5034310;28;20549;-67
2023/10/20 07:44:47;;;;;;;32.50;29.80;;;21.60;56.80;;;;;;5036457;28;20253;-70
2023/10/20 07:47:12;;;;;;;31.57;28.97;;;21.60;56.70;;;;;;5043238;28;20182;-68
2023/10/20 07:49:39;;;;;;;30.53;28.00;;;21.60;56.70;;;;;;5051895;28;20838;-66
2023/10/20 07:52:04;;;;;;;30.20;27.70;;;21.60;56.80;;;;;;5053909;28;20448;-66
2023/10/20 07:54:30;;;;;;;30.40;28.00;;;21.60;56.70;;;;;;5048146;28;20449;-68
2023/10/20 07:56:56;;;;;;;30.27;27.77;;;21.60;56.80;;;;;;5042782;28;20600;-67
2023/10/20 07:59:22;;;;;;;31.10;28.40;;;21.60;56.80;;;;;;5031151;28;20211;-66
2023/10/20 08:01:47;;;;;;;30.30;27.60;;;21.60;56.80;;;;;;5037200;28;20962;-67
2023/10/20 08:04:13;;;;;;;30.83;28.30;;;21.60;56.80;;;;;;5032164;28;20634;-69
2023/10/20 08:06:38;;;;;;;29.77;27.37;;;21.60;56.80;;;;;;5041342;28;20257;-68
2023/10/20 08:09:04;;;;;;;28.60;26.30;;;21.60;56.80;;;;;;5039696;28;20692;-68
2023/10/20 08:11:30;;;;;;;28.63;26.27;;;21.60;56.80;;;;;;5043189;28;20187;-67
2023/10/20 08:13:57;;;;;;;29.00;26.60;;;21.60;56.80;;;;;;5034952;28;20183;-67
2023/10/20 08:16:23;;;;;;;28.17;25.87;;;21.60;56.80;;;;;;5046201;28;20704;-67
2023/10/20 08:18:51;;;;;;;27.50;25.17;;;21.60;56.80;;;;;;5035607;28;20458;-68
2023/10/20 08:21:16;;;;;;;28.10;25.70;;;21.70;56.90;;;;;;5032787;28;20240;-67
2023/10/20 08:23:42;;;;;;;29.57;27.07;;;21.70;56.90;;;;;;5045143;28;20437;-67
2023/10/20 08:26:15;;;;;;;28.93;26.43;;;21.70;56.90;;;;;;5035953;28;20179;-67
2023/10/20 08:28:41;;;;;;;26.90;24.60;;;21.70;56.80;;;;;;5034756;28;20433;-67
2023/10/20 08:31:16;;;;;;;28.90;26.50;;;21.70;56.80;;;;;;5038741;28;20967;-67
2023/10/20 08:33:42;;;;;;;29.73;27.17;;;21.70;56.90;;;;;;5035776;28;21026;-68
2023/10/20 08:36:15;;;;;;;29.37;26.87;;;21.70;56.90;;;;;;5036712;28;20452;-68
2023/10/20 08:38:43;;;;;;;26.43;24.43;;;21.70;56.90;;;;;;5040684;28;20427;-67
2023/10/20 08:41:14;;;;;;;29.60;27.10;;;21.70;56.90;;;;;;5051279;28;20450;-69
2023/10/20 08:43:43;;;;;;;28.80;26.40;;;21.70;56.90;;;;;;5035917;28;20507;-69
2023/10/20 08:46:11;;;;;;;27.93;25.53;;;21.70;56.90;;;;;;5033079;28;20438;-67
2023/10/20 08:48:41;;;;;;;29.20;26.83;;;21.70;56.90;;;;;;5032046;28;20490;-68
2023/10/20 08:51:08;;;;;;;26.67;24.47;;;21.70;56.90;;;;;;5032948;28;20479;-67
2023/10/20 08:53:36;;;;;;;27.70;25.27;;;21.70;56.90;;;;;;5042187;28;20911;-69
2023/10/20 08:56:03;;;;;;;28.90;26.50;;;21.70;56.90;;;;;;5042026;28;20493;-67
2023/10/20 08:58:29;;;;;;;26.77;24.47;;;21.70;56.90;;;;;;5046355;28;20808;-67
2023/10/20 09:00:56;;;;;;;27.77;25.43;;;21.70;56.90;;;;;;5046241;28;20471;-68
2023/10/20 09:03:21;;;;;;;27.67;25.30;;;21.70;56.90;;;;;;5043574;28;20806;-68
2023/10/20 09:05:47;;;;;;;27.43;25.17;;;21.70;56.90;;;;;;5043910;28;20469;-66
2023/10/20 09:08:13;;;;;;;27.73;25.43;;;21.70;56.90;;;;;;5042122;28;20175;-67
2023/10/20 09:10:43;;;;;;;25.13;23.13;;;21.70;56.90;;;;;;5047591;28;20198;-68
2023/10/20 09:13:09;;;;;;;27.80;25.50;;;21.70;56.90;;;;;;5035972;28;20233;-69
2023/10/20 09:15:35;;;;;;;26.77;24.47;;;21.70;56.90;;;;;;5051125;28;21006;-67
2023/10/20 09:18:00;;;;;;;27.77;25.53;;;21.70;56.90;;;;;;5051088;28;20193;-68
2023/10/20 09:20:26;;;;;;;25.40;23.40;;;21.70;56.90;;;;;;5038736;28;20559;-68
2023/10/20 09:22:52;;;;;;;26.23;24.03;;;21.70;56.90;;;;;;5035813;28;20199;-68
2023/10/20 09:25:18;;;;;;;24.63;22.43;;;21.70;56.90;;;;;;5051683;28;20203;-67
2023/10/20 09:27:46;;;;;;;26.00;23.83;;;21.70;56.90;;;;;;5033347;28;21002;-67
2023/10/20 09:30:12;;;;;;;25.00;22.87;;;21.70;56.90;;;;;;5041510;28;20488;-69
2023/10/20 09:32:38;;;;;;;25.80;23.63;;;21.70;56.90;;;;;;5038131;28;20465;-67
2023/10/20 09:35:04;;;;;;;25.23;23.17;;;21.70;56.90;;;;;;5035237;28;20457;-66
2023/10/20 09:37:31;;;;;;;24.80;22.63;;;21.70;56.90;;;;;;5050770;28;20428;-67
2023/10/20 09:40:08;;;;;;;24.60;22.50;;;21.70;56.80;;;;;;5052102;28;20445;-67
2023/10/20 09:43:11;;;;;;;24.57;22.60;;;21.70;56.80;;;;;;5049273;28;20483;-68
2023/10/20 09:45:40;;;;;;;24.60;22.50;;;21.70;56.90;;;;;;5045871;28;20519;-68
2023/10/20 09:48:15;;;;;;;23.70;21.70;;;21.70;56.90;;;;;;5031565;28;20525;-68
2023/10/20 09:50:40;;;;;;;25.33;23.20;;;21.70;56.90;;;;;;5031605;28;21022;-68
2023/10/20 09:53:06;;;;;;;24.43;22.43;;;21.70;57.00;;;;;;5030965;28;20438;-69
2023/10/20 09:55:32;;;;;;;25.30;23.30;;;21.70;57.00;;;;;;5038732;28;20545;-66
2023/10/20 09:57:58;;;;;;;24.83;22.77;;;21.70;57.20;;;;;;5040751;28;20190;-68
2023/10/20 10:00:31;;;;;;;24.33;22.33;;;21.70;56.90;;;;;;5048248;28;20278;-67
2023/10/20 10:03:00;;;;;;;24.30;22.20;;;21.70;56.90;;;;;;5048788;28;20483;-67
2023/10/20 10:05:29;;;;;;;23.97;21.97;;;21.70;56.90;;;;;;5050411;28;20453;-68
2023/10/20 10:08:09;;;;;;;23.93;22.00;;;21.70;56.90;;;;;;5040720;28;20959;-68
2023/10/20 10:10:37;;;;;;;24.17;22.17;;;21.70;57.00;;;;;;5031666;28;20414;-65
2023/10/20 10:13:06;;;;;;;22.50;20.63;;;21.70;57.00;;;;;;5028895;28;20450;-67
2023/10/20 10:15:45;;;;;;;22.77;20.87;;;21.70;57.00;;;;;;5038162;28;20469;-68
2023/10/20 10:18:13;;;;;;;23.53;21.60;;;21.70;56.90;;;;;;5037588;28;20452;-67
2023/10/20 10:20:49;;;;;;;22.67;20.87;;;21.70;56.90;;;;;;5030955;28;20863;-68
2023/10/20 10:23:15;;;;;;;23.90;22.00;;;21.70;56.90;;;;;;5039789;28;21009;-67
2023/10/20 10:25:47;;;;;;;23.73;21.83;;;21.70;56.90;;;;;;5049267;28;20967;-64
2023/10/20 10:28:14;;;;;;;23.00;21.20;;;21.70;57.00;;;;;;5036504;28;20442;-69
2023/10/20 10:30:41;;;;;;;21.90;20.10;;;21.70;56.90;;;;;;5039673;28;20837;-68
2023/10/20 10:33:08;;;;;;;22.37;20.47;;;21.70;57.00;;;;;;5048568;28;20437;-68
2023/10/20 10:35:36;;;;;;;25.10;23.00;;;21.70;56.90;;;;;;5033883;28;20462;-68
2023/10/20 10:38:03;;;;;;;22.23;20.47;;;21.70;56.90;;;;;;5050726;28;20445;-66
2023/10/20 10:40:29;;;;;;;21.73;19.73;;;21.70;56.90;;;;;;5042198;28;20505;-66
2023/10/20 10:42:54;;;;;;;21.53;19.73;;;21.70;56.90;;;;;;5030882;28;20462;-68
2023/10/20 10:45:34;;;;;;;22.63;20.73;;;21.70;56.90;;;;;;5030949;28;20434;-66
2023/10/20 10:48:07;;;;;;;21.67;19.87;;;21.70;56.90;;;;;;5031043;28;20160;-68
2023/10/20 10:50:35;;;;;;;23.03;21.23;;;21.70;56.90;;;;;;5032846;28;20426;-67
2023/10/20 10:53:02;;;;;;;21.90;20.10;;;21.70;56.90;;;;;;5040388;28;20428;-68
2023/10/20 10:55:28;;;;;;;21.80;20.07;;;21.70;56.90;;;;;;5030849;28;20469;-68
2023/10/20 10:57:54;;;;;;;23.30;21.40;;;21.70;56.90;;;;;;5031082;28;20422;-66
2023/10/20 11:00:21;;;;;;;22.47;20.37;;;21.70;56.90;;;;;;5031134;28;20421;-68
2023/10/20 11:02:48;;;;;;;20.93;19.20;;;21.70;56.90;;;;;;5030798;28;20191;-68
2023/10/20 11:05:15;;;;;;;21.43;19.73;;;21.70;56.90;;;;;;5030761;28;20484;-68
2023/10/20 11:07:40;;;;;;;21.70;19.90;;;21.70;56.90;;;;;;5038546;28;20444;-68
2023/10/20 11:10:07;;;;;;;22.50;20.50;;;21.80;57.00;;;;;;5041879;28;20489;-68
2023/10/20 11:12:34;;;;;;;20.50;18.73;;;21.70;56.80;;;;;;5045670;28;20186;-67
2023/10/20 11:15:00;;;;;;;21.00;19.40;;;21.80;57.00;;;;;;5038356;28;20468;-67
2023/10/20 11:17:27;;;;;;;22.93;20.93;;;21.70;56.90;;;;;;5045814;28;20433;-68
2023/10/20 11:19:53;;;;;;;20.30;18.47;;;21.80;57.00;;;;;;5049429;28;20537;-68
2023/10/20 11:22:19;;;;;;;21.07;19.27;;;21.80;57.00;;;;;;5049597;28;20548;-67
2023/10/20 11:24:53;;;;;;;19.87;18.07;;;21.80;57.00;;;;;;5049616;28;20210;-67
2023/10/20 11:27:19;;;;;;;21.30;19.57;;;21.80;57.00;;;;;;5045940;28;20614;-68
2023/10/20 11:29:45;;;;;;;21.10;19.17;;;21.70;56.90;;;;;;5030150;28;20533;-67
2023/10/20 11:32:13;;;;;;;22.43;20.40;;;21.70;56.90;;;;;;5030266;28;20199;-68
2023/10/20 11:34:40;;;;;;;20.87;18.97;;;21.70;56.90;;;;;;5036983;28;20475;-66
2023/10/20 11:37:06;;;;;;;20.80;18.93;;;21.80;57.00;;;;;;5039073;28;20432;-68
2023/10/20 11:39:36;;;;;;;23.60;21.50;;;21.70;56.90;;;;;;5050313;28;20422;-68
2023/10/20 11:42:02;;;;;;;22.43;20.20;;;21.80;57.00;;;;;;5043210;28;20848;-66
2023/10/20 11:44:28;;;;;;;21.20;19.30;;;21.80;57.00;;;;;;5050196;28;20461;-69
2023/10/20 11:46:54;;;;;;;21.73;19.83;;;21.70;56.90;;;;;;5050388;28;20446;-67
2023/10/20 11:49:20;;;;;;;20.63;18.73;;;21.70;56.90;;;;;;5054141;28;20258;-67
2023/10/20 11:51:47;;;;;;;21.50;19.53;;;21.80;57.00;;;;;;5054135;28;20409;-66
2023/10/20 11:54:13;;;;;;;22.33;20.03;;;21.70;56.90;;;;;;5040481;28;20524;-68
2023/10/20 11:56:40;;;;;;;21.17;19.17;;;21.70;56.90;;;;;;5033938;28;20509;-65
2023/10/20 11:59:06;;;;;;;22.67;20.43;;;21.80;57.00;;;;;;5040563;28;20195;-67
2023/10/20 12:01:32;;;;;;;22.87;20.23;;;21.80;57.00;;;;;;5052400;28;20425;-67
2023/10/20 12:04:05;;;;;;;23.97;21.87;;;21.70;56.90;;;;;;5053730;28;20414;-68
2023/10/20 12:06:31;;;;;;;21.87;19.70;;;21.80;57.00;;;;;;5053498;28;20424;-68
2023/10/20 12:08:56;;;;;;;21.87;19.80;;;21.80;57.00;;;;;;5052768;28;20417;-68
2023/10/20 12:11:22;;;;;;;22.23;19.93;;;21.70;56.90;;;;;;5035308;28;20214;-68
2023/10/20 12:13:48;;;;;;;22.30;20.00;;;21.80;57.00;;;;;;5033217;28;20195;-67
2023/10/20 12:16:19;;;;;;;22.73;20.50;;;21.80;57.00;;;;;;5036188;28;20329;-67
2023/10/20 12:18:46;;;;;;;23.33;21.07;;;21.80;57.00;;;;;;5050157;28;20813;-68
2023/10/20 12:21:13;;;;;;;22.47;20.17;;;21.70;56.90;;;;;;5033546;28;20446;-67
2023/10/20 12:23:39;;;;;;;21.53;19.27;;;21.80;57.00;;;;;;5043174;28;20461;-68
2023/10/20 12:26:04;;;;;;;23.67;20.43;;;21.80;57.00;;;;;;5035493;28;20943;-66
2023/10/20 12:28:31;;;;;;;22.03;19.73;;;21.80;57.00;;;;;;5043045;28;20338;-67
2023/10/20 12:30:57;;;;;;;21.73;19.53;;;21.70;56.90;;;;;;5045112;28;20295;-66
2023/10/20 12:33:24;;;;;;;22.33;20.00;;;21.70;56.90;;;;;;5036743;28;20529;-68
2023/10/20 12:35:55;;;;;;;22.27;19.97;;;21.80;57.00;;;;;;5048364;28;20514;-68
2023/10/20 12:38:21;;;;;;;22.83;20.47;;;21.70;56.90;;;;;;5040519;28;20425;-68
2023/10/20 12:40:49;;;;;;;23.93;21.10;;;21.70;56.90;;;;;;5053073;28;20406;-67
2023/10/20 12:43:15;;;;;;;22.40;20.27;;;21.80;57.00;;;;;;5039076;28;20544;-67
2023/10/20 12:45:41;;;;;;;21.07;18.83;;;21.80;57.00;;;;;;5033050;28;20441;-67
2023/10/20 12:48:07;;;;;;;23.00;20.70;;;21.80;57.00;;;;;;5033080;28;20403;-68
2023/10/20 12:50:32;;;;;;;21.73;19.53;;;21.80;57.00;;;;;;5043418;28;20417;-68
2023/10/20 12:52:59;;;;;;;23.40;20.93;;;21.80;57.00;;;;;;5052963;28;20198;-68
2023/10/20 12:55:30;;;;;;;20.67;18.53;;;21.80;57.00;;;;;;5038734;28;20305;-68
2023/10/20 12:57:56;;;;;;;21.33;19.23;;;21.70;56.90;;;;;;5033267;28;20398;-67
2023/10/20 13:00:22;;;;;;;20.80;18.53;;;21.80;57.00;;;;;;5030517;28;20418;-68